sensor_id;sensor_type;location;lat;lon;timestamp;pressure;altitude;pressure_sealevel;temperature;humidity
49435;BME280;35306;53.458;-1.990;2022-07-06T00:00:56;101198.33;;;16.44;100.00
49435;BME280;35306;53.458;-1.990;2022-07-06T00:03:24;101197.13;;;16.80;100.00
49435;BME280;35306;53.458;-1.990;2022-07-06T00:05:52;101199.87;;;16.78;100.00
49435;BME280;35306;53.458;-1.990;2022-07-06T00:08:20;101203.24;;;17.30;100.00
49435;BME280;35306;53.458;-1.990;2022-07-06T00:10:48;101212.08;;;16.17;100.00
49435;BME280;35306;53.458;-1.990;2022-07-06T00:15:27;101206.92;;;18.05;100.00
49435;BME280;35306;53.458;-1.990;2022-07-06T00:17:55;101207.26;;;17.25;100.00
49435;BME280;35306;53.458;-1.990;2022-07-06T00:20:23;101204.19;;;17.48;100.00
49435;BME280;35306;53.458;-1.990;2022-07-06T00:22:51;101197.01;;;18.07;100.00
49435;BME280;35306;53.458;-1.990;2022-07-06T00:25:19;101190.12;;;18.14;100.00
49435;BME280;35306;53.458;-1.990;2022-07-06T00:27:48;101183.92;;;18.96;98.34
49435;BME280;35306;53.458;-1.990;2022-07-06T00:30:16;101181.42;;;18.83;97.53
49435;BME280;35306;53.458;-1.990;2022-07-06T00:32:44;101179.42;;;18.34;100.00
49435;BME280;35306;53.458;-1.990;2022-07-06T00:35:13;101176.16;;;18.03;100.00
49435;BME280;35306;53.458;-1.990;2022-07-06T00:37:40;101179.33;;;18.33;100.00
49435;BME280;35306;53.458;-1.990;2022-07-06T00:40:09;101183.08;;;17.91;100.00
49435;BME280;35306;53.458;-1.990;2022-07-06T00:42:41;101179.77;;;18.01;100.00
49435;BME280;35306;53.458;-1.990;2022-07-06T00:45:11;101177.88;;;18.35;100.00
49435;BME280;35306;53.458;-1.990;2022-07-06T00:47:40;101173.20;;;18.83;100.00
49435;BME280;35306;53.458;-1.990;2022-07-06T00:50:09;101168.09;;;18.62;99.36
49435;BME280;35306;53.458;-1.990;2022-07-06T00:52:38;101170.85;;;19.12;96.30
49435;BME280;35306;53.458;-1.990;2022-07-06T00:55:07;101173.19;;;18.88;98.88
49435;BME280;35306;53.458;-1.990;2022-07-06T00:57:35;101180.76;;;18.33;100.00
49435;BME280;35306;53.458;-1.990;2022-07-06T01:00:05;101177.09;;;18.80;100.00
49435;BME280;35306;53.458;-1.990;2022-07-06T01:02:35;101180.16;;;18.24;100.00
49435;BME280;35306;53.458;-1.990;2022-07-06T01:05:05;101182.97;;;18.13;100.00
49435;BME280;35306;53.458;-1.990;2022-07-06T01:07:36;101178.17;;;18.58;100.00
49435;BME280;35306;53.458;-1.990;2022-07-06T01:10:05;101173.76;;;18.47;100.00
49435;BME280;35306;53.458;-1.990;2022-07-06T01:12:35;101173.83;;;19.08;97.95
49435;BME280;35306;53.458;-1.990;2022-07-06T01:15:05;101175.11;;;18.53;99.64
49435;BME280;35306;53.458;-1.990;2022-07-06T01:17:33;101174.39;;;17.26;100.00
49435;BME280;35306;53.458;-1.990;2022-07-06T01:20:09;101167.82;;;18.96;100.00
49435;BME280;35306;53.458;-1.990;2022-07-06T01:22:36;101166.96;;;18.76;100.00
49435;BME280;35306;53.458;-1.990;2022-07-06T01:25:05;101166.99;;;17.93;100.00
49435;BME280;35306;53.458;-1.990;2022-07-06T01:27:34;101167.72;;;17.92;100.00
49435;BME280;35306;53.458;-1.990;2022-07-06T01:30:03;101172.08;;;17.60;100.00
49435;BME280;35306;53.458;-1.990;2022-07-06T01:32:31;101171.80;;;16.83;100.00
49435;BME280;35306;53.458;-1.990;2022-07-06T01:35:00;101166.46;;;17.42;100.00
49435;BME280;35306;53.458;-1.990;2022-07-06T01:37:29;101160.60;;;17.67;100.00
49435;BME280;35306;53.458;-1.990;2022-07-06T01:39:59;101155.87;;;17.69;100.00
49435;BME280;35306;53.458;-1.990;2022-07-06T01:42:27;101159.37;;;16.22;100.00
49435;BME280;35306;53.458;-1.990;2022-07-06T01:44:55;101160.21;;;16.55;100.00
49435;BME280;35306;53.458;-1.990;2022-07-06T01:47:24;101156.50;;;16.94;100.00
49435;BME280;35306;53.458;-1.990;2022-07-06T01:49:52;101156.94;;;16.74;100.00
49435;BME280;35306;53.458;-1.990;2022-07-06T01:52:21;101154.17;;;17.06;100.00
49435;BME280;35306;53.458;-1.990;2022-07-06T01:54:49;101150.25;;;16.72;100.00
49435;BME280;35306;53.458;-1.990;2022-07-06T01:57:17;101143.28;;;16.93;100.00
49435;BME280;35306;53.458;-1.990;2022-07-06T01:59:45;101139.16;;;17.55;100.00
49435;BME280;35306;53.458;-1.990;2022-07-06T02:02:13;101132.30;;;17.93;100.00
49435;BME280;35306;53.458;-1.990;2022-07-06T02:04:42;101121.12;;;16.72;100.00
49435;BME280;35306;53.458;-1.990;2022-07-06T02:07:10;101115.98;;;17.54;100.00
49435;BME280;35306;53.458;-1.990;2022-07-06T02:09:38;101106.23;;;18.19;100.00
49435;BME280;35306;53.458;-1.990;2022-07-06T02:12:06;101112.11;;;17.93;100.00
49435;BME280;35306;53.458;-1.990;2022-07-06T02:14:33;101113.93;;;17.23;100.00
49435;BME280;35306;53.458;-1.990;2022-07-06T02:17:01;101115.44;;;16.77;100.00
49435;BME280;35306;53.458;-1.990;2022-07-06T02:19:28;101108.76;;;16.63;100.00
49435;BME280;35306;53.458;-1.990;2022-07-06T02:21:56;101100.43;;;16.62;100.00
49435;BME280;35306;53.458;-1.990;2022-07-06T02:24:23;101096.31;;;16.54;100.00
49435;BME280;35306;53.458;-1.990;2022-07-06T02:26:51;101094.03;;;15.97;100.00
49435;BME280;35306;53.458;-1.990;2022-07-06T02:29:18;101096.07;;;15.89;100.00
49435;BME280;35306;53.458;-1.990;2022-07-06T02:31:46;101091.81;;;16.29;100.00
49435;BME280;35306;53.458;-1.990;2022-07-06T02:34:14;101091.20;;;16.36;100.00
49435;BME280;35306;53.458;-1.990;2022-07-06T02:36:41;101096.56;;;16.41;100.00
49435;BME280;35306;53.458;-1.990;2022-07-06T02:39:08;101096.73;;;15.96;100.00
49435;BME280;35306;53.458;-1.990;2022-07-06T02:41:36;101097.22;;;16.09;100.00
49435;BME280;35306;53.458;-1.990;2022-07-06T02:44:04;101100.93;;;15.90;100.00
49435;BME280;35306;53.458;-1.990;2022-07-06T02:46:31;101100.79;;;15.47;100.00
49435;BME280;35306;53.458;-1.990;2022-07-06T02:48:59;101098.20;;;14.98;100.00
49435;BME280;35306;53.458;-1.990;2022-07-06T02:51:26;101102.34;;;15.91;100.00
49435;BME280;35306;53.458;-1.990;2022-07-06T02:53:54;101102.59;;;15.73;100.00
49435;BME280;35306;53.458;-1.990;2022-07-06T02:56:22;101098.01;;;16.10;100.00
49435;BME280;35306;53.458;-1.990;2022-07-06T02:58:49;101100.57;;;15.74;100.00
49435;BME280;35306;53.458;-1.990;2022-07-06T03:01:17;101100.78;;;15.62;100.00
49435;BME280;35306;53.458;-1.990;2022-07-06T03:03:44;101100.29;;;15.61;100.00
49435;BME280;35306;53.458;-1.990;2022-07-06T03:06:12;101100.16;;;15.59;100.00
49435;BME280;35306;53.458;-1.990;2022-07-06T03:08:39;101107.73;;;15.49;100.00
49435;BME280;35306;53.458;-1.990;2022-07-06T03:11:07;101113.37;;;15.78;100.00
49435;BME280;35306;53.458;-1.990;2022-07-06T03:13:34;101113.55;;;15.37;100.00
49435;BME280;35306;53.458;-1.990;2022-07-06T03:16:02;101110.30;;;15.58;100.00
49435;BME280;35306;53.458;-1.990;2022-07-06T03:18:29;101109.16;;;15.99;100.00
49435;BME280;35306;53.458;-1.990;2022-07-06T03:20:57;101110.93;;;15.39;100.00
49435;BME280;35306;53.458;-1.990;2022-07-06T03:23:24;101115.49;;;15.36;100.00
49435;BME280;35306;53.458;-1.990;2022-07-06T03:25:52;101114.61;;;15.66;100.00
49435;BME280;35306;53.458;-1.990;2022-07-06T03:28:19;101113.13;;;15.16;100.00
49435;BME280;35306;53.458;-1.990;2022-07-06T03:30:48;101112.27;;;15.76;100.00
49435;BME280;35306;53.458;-1.990;2022-07-06T03:33:16;101115.48;;;15.87;100.00
49435;BME280;35306;53.458;-1.990;2022-07-06T03:35:43;101111.04;;;15.11;100.00
49435;BME280;35306;53.458;-1.990;2022-07-06T03:38:11;101108.27;;;15.27;100.00
49435;BME280;35306;53.458;-1.990;2022-07-06T03:40:38;101104.34;;;15.51;100.00
49435;BME280;35306;53.458;-1.990;2022-07-06T03:43:06;101101.54;;;15.88;100.00
49435;BME280;35306;53.458;-1.990;2022-07-06T03:45:34;101105.22;;;15.79;100.00
49435;BME280;35306;53.458;-1.990;2022-07-06T03:48:02;101110.36;;;15.88;100.00
49435;BME280;35306;53.458;-1.990;2022-07-06T03:50:29;101117.92;;;15.82;100.00
49435;BME280;35306;53.458;-1.990;2022-07-06T03:52:57;101117.45;;;15.30;100.00
49435;BME280;35306;53.458;-1.990;2022-07-06T03:55:24;101118.82;;;15.59;100.00
49435;BME280;35306;53.458;-1.990;2022-07-06T03:57:52;101129.41;;;15.34;100.00
49435;BME280;35306;53.458;-1.990;2022-07-06T04:00:20;101133.82;;;15.59;100.00
49435;BME280;35306;53.458;-1.990;2022-07-06T04:02:48;101130.79;;;15.63;100.00
49435;BME280;35306;53.458;-1.990;2022-07-06T04:05:16;101122.93;;;15.63;100.00
49435;BME280;35306;53.458;-1.990;2022-07-06T04:07:44;101121.64;;;16.27;100.00
49435;BME280;35306;53.458;-1.990;2022-07-06T04:10:12;101123.44;;;15.95;100.00
49435;BME280;35306;53.458;-1.990;2022-07-06T04:12:40;101127.16;;;15.83;100.00
49435;BME280;35306;53.458;-1.990;2022-07-06T04:15:08;101127.42;;;16.04;100.00
49435;BME280;35306;53.458;-1.990;2022-07-06T04:17:36;101127.93;;;15.61;100.00
49435;BME280;35306;53.458;-1.990;2022-07-06T04:20:04;101130.61;;;15.55;100.00
49435;BME280;35306;53.458;-1.990;2022-07-06T04:22:32;101118.97;;;15.23;100.00
49435;BME280;35306;53.458;-1.990;2022-07-06T04:24:59;101117.26;;;15.11;100.00
49435;BME280;35306;53.458;-1.990;2022-07-06T04:27:27;101117.89;;;15.18;100.00
49435;BME280;35306;53.458;-1.990;2022-07-06T04:29:55;101110.61;;;15.17;100.00
49435;BME280;35306;53.458;-1.990;2022-07-06T04:32:22;101105.79;;;15.35;100.00
49435;BME280;35306;53.458;-1.990;2022-07-06T04:34:49;101105.57;;;14.99;100.00
49435;BME280;35306;53.458;-1.990;2022-07-06T04:37:17;101103.71;;;15.22;100.00
49435;BME280;35306;53.458;-1.990;2022-07-06T04:39:44;101110.41;;;15.27;100.00
49435;BME280;35306;53.458;-1.990;2022-07-06T04:42:12;101114.29;;;15.51;100.00
49435;BME280;35306;53.458;-1.990;2022-07-06T04:44:39;101112.95;;;15.77;100.00
49435;BME280;35306;53.458;-1.990;2022-07-06T04:47:07;101111.83;;;15.74;100.00
49435;BME280;35306;53.458;-1.990;2022-07-06T04:49:34;101113.41;;;14.82;100.00
49435;BME280;35306;53.458;-1.990;2022-07-06T04:52:02;101119.15;;;15.27;100.00
49435;BME280;35306;53.458;-1.990;2022-07-06T04:54:29;101117.60;;;15.65;100.00
49435;BME280;35306;53.458;-1.990;2022-07-06T04:56:57;101120.30;;;15.39;100.00
49435;BME280;35306;53.458;-1.990;2022-07-06T04:59:25;101121.68;;;15.24;100.00
49435;BME280;35306;53.458;-1.990;2022-07-06T05:01:52;101122.10;;;15.23;100.00
49435;BME280;35306;53.458;-1.990;2022-07-06T05:04:20;101124.41;;;15.56;100.00
49435;BME280;35306;53.458;-1.990;2022-07-06T05:06:48;101128.97;;;15.68;100.00
49435;BME280;35306;53.458;-1.990;2022-07-06T05:09:16;101132.15;;;15.73;100.00
49435;BME280;35306;53.458;-1.990;2022-07-06T05:11:43;101134.97;;;15.72;100.00
49435;BME280;35306;53.458;-1.990;2022-07-06T05:14:11;101131.64;;;15.27;100.00
49435;BME280;35306;53.458;-1.990;2022-07-06T05:16:39;101131.62;;;15.65;100.00
49435;BME280;35306;53.458;-1.990;2022-07-06T05:19:06;101135.27;;;15.75;100.00
49435;BME280;35306;53.458;-1.990;2022-07-06T05:21:33;101128.67;;;15.55;100.00
49435;BME280;35306;53.458;-1.990;2022-07-06T05:24:01;101126.43;;;15.51;100.00
49435;BME280;35306;53.458;-1.990;2022-07-06T05:26:29;101125.33;;;15.80;100.00
49435;BME280;35306;53.458;-1.990;2022-07-06T05:28:56;101123.75;;;16.59;100.00
49435;BME280;35306;53.458;-1.990;2022-07-06T05:31:24;101125.38;;;17.06;100.00
49435;BME280;35306;53.458;-1.990;2022-07-06T05:33:51;101131.17;;;16.85;100.00
49435;BME280;35306;53.458;-1.990;2022-07-06T05:36:19;101138.07;;;17.12;100.00
49435;BME280;35306;53.458;-1.990;2022-07-06T05:38:47;101141.36;;;17.06;100.00
49435;BME280;35306;53.458;-1.990;2022-07-06T05:41:14;101145.36;;;16.20;100.00
49435;BME280;35306;53.458;-1.990;2022-07-06T05:43:42;101144.16;;;17.15;100.00
49435;BME280;35306;53.458;-1.990;2022-07-06T05:46:09;101145.58;;;17.08;100.00
49435;BME280;35306;53.458;-1.990;2022-07-06T05:48:37;101142.15;;;17.47;100.00
49435;BME280;35306;53.458;-1.990;2022-07-06T05:51:05;101141.35;;;17.03;100.00
49435;BME280;35306;53.458;-1.990;2022-07-06T05:53:32;101131.04;;;16.79;100.00
49435;BME280;35306;53.458;-1.990;2022-07-06T05:56:00;101127.24;;;17.36;100.00
49435;BME280;35306;53.458;-1.990;2022-07-06T05:58:27;101130.48;;;16.89;100.00
49435;BME280;35306;53.458;-1.990;2022-07-06T06:00:55;101128.99;;;16.36;100.00
49435;BME280;35306;53.458;-1.990;2022-07-06T06:03:22;101126.12;;;16.81;100.00
49435;BME280;35306;53.458;-1.990;2022-07-06T06:05:49;101135.26;;;16.73;100.00
49435;BME280;35306;53.458;-1.990;2022-07-06T06:08:16;101134.83;;;16.88;100.00
49435;BME280;35306;53.458;-1.990;2022-07-06T06:10:44;101139.66;;;16.23;100.00
49435;BME280;35306;53.458;-1.990;2022-07-06T06:13:11;101141.19;;;17.13;100.00
49435;BME280;35306;53.458;-1.990;2022-07-06T06:15:40;101147.75;;;16.39;100.00
49435;BME280;35306;53.458;-1.990;2022-07-06T06:18:07;101140.55;;;17.12;100.00
49435;BME280;35306;53.458;-1.990;2022-07-06T06:20:34;101144.30;;;16.75;100.00
49435;BME280;35306;53.458;-1.990;2022-07-06T06:23:02;101150.10;;;15.79;100.00
49435;BME280;35306;53.458;-1.990;2022-07-06T06:25:30;101146.77;;;16.42;100.00
49435;BME280;35306;53.458;-1.990;2022-07-06T06:28:01;101148.52;;;16.38;100.00
49435;BME280;35306;53.458;-1.990;2022-07-06T06:30:29;101141.93;;;16.96;100.00
49435;BME280;35306;53.458;-1.990;2022-07-06T06:33:15;101143.90;;;16.41;100.00
49435;BME280;35306;53.458;-1.990;2022-07-06T06:35:44;101143.17;;;16.32;100.00
49435;BME280;35306;53.458;-1.990;2022-07-06T06:38:13;101146.62;;;16.56;100.00
49435;BME280;35306;53.458;-1.990;2022-07-06T06:40:41;101151.00;;;16.49;100.00
49435;BME280;35306;53.458;-1.990;2022-07-06T06:43:09;101149.42;;;16.23;100.00
49435;BME280;35306;53.458;-1.990;2022-07-06T06:45:37;101152.78;;;15.77;100.00
49435;BME280;35306;53.458;-1.990;2022-07-06T06:48:05;101154.97;;;16.11;100.00
49435;BME280;35306;53.458;-1.990;2022-07-06T06:50:32;101160.90;;;16.25;100.00
49435;BME280;35306;53.458;-1.990;2022-07-06T06:52:59;101159.36;;;15.77;100.00
49435;BME280;35306;53.458;-1.990;2022-07-06T06:55:27;101149.97;;;15.77;100.00
49435;BME280;35306;53.458;-1.990;2022-07-06T06:57:54;101145.87;;;15.73;100.00
49435;BME280;35306;53.458;-1.990;2022-07-06T07:00:22;101149.19;;;15.77;100.00
49435;BME280;35306;53.458;-1.990;2022-07-06T07:02:49;101146.47;;;15.12;100.00
49435;BME280;35306;53.458;-1.990;2022-07-06T07:05:17;101143.29;;;16.23;100.00
49435;BME280;35306;53.458;-1.990;2022-07-06T07:07:45;101132.37;;;16.55;100.00
49435;BME280;35306;53.458;-1.990;2022-07-06T07:10:13;101130.99;;;16.13;100.00
49435;BME280;35306;53.458;-1.990;2022-07-06T07:12:44;101130.06;;;15.79;100.00
49435;BME280;35306;53.458;-1.990;2022-07-06T07:15:13;101127.54;;;16.28;100.00
49435;BME280;35306;53.458;-1.990;2022-07-06T07:17:41;101133.36;;;15.75;100.00
49435;BME280;35306;53.458;-1.990;2022-07-06T07:20:09;101136.85;;;16.19;100.00
49435;BME280;35306;53.458;-1.990;2022-07-06T07:22:37;101140.92;;;16.21;100.00
49435;BME280;35306;53.458;-1.990;2022-07-06T07:25:05;101147.89;;;16.00;100.00
49435;BME280;35306;53.458;-1.990;2022-07-06T07:27:33;101141.31;;;15.38;100.00
49435;BME280;35306;53.458;-1.990;2022-07-06T07:30:00;101137.38;;;15.35;100.00
49435;BME280;35306;53.458;-1.990;2022-07-06T07:32:28;101140.16;;;15.37;100.00
49435;BME280;35306;53.458;-1.990;2022-07-06T07:34:56;101145.88;;;15.55;100.00
49435;BME280;35306;53.458;-1.990;2022-07-06T07:37:23;101143.57;;;16.00;100.00
49435;BME280;35306;53.458;-1.990;2022-07-06T07:39:50;101142.09;;;15.61;100.00
49435;BME280;35306;53.458;-1.990;2022-07-06T07:42:18;101141.62;;;15.84;100.00
49435;BME280;35306;53.458;-1.990;2022-07-06T07:44:45;101135.77;;;16.34;100.00
49435;BME280;35306;53.458;-1.990;2022-07-06T07:47:13;101133.91;;;16.83;100.00
49435;BME280;35306;53.458;-1.990;2022-07-06T07:49:40;101140.54;;;15.59;100.00
49435;BME280;35306;53.458;-1.990;2022-07-06T07:52:08;101141.80;;;15.31;100.00
49435;BME280;35306;53.458;-1.990;2022-07-06T07:54:36;101140.49;;;15.32;100.00
49435;BME280;35306;53.458;-1.990;2022-07-06T07:57:04;101136.95;;;14.68;100.00
49435;BME280;35306;53.458;-1.990;2022-07-06T07:59:32;101137.08;;;15.45;100.00
49435;BME280;35306;53.458;-1.990;2022-07-06T08:01:59;101140.13;;;15.82;100.00
49435;BME280;35306;53.458;-1.990;2022-07-06T08:04:27;101135.84;;;15.79;100.00
49435;BME280;35306;53.458;-1.990;2022-07-06T08:06:55;101136.69;;;14.82;100.00
49435;BME280;35306;53.458;-1.990;2022-07-06T08:09:22;101135.43;;;15.16;100.00
49435;BME280;35306;53.458;-1.990;2022-07-06T08:11:50;101140.20;;;14.70;100.00
49435;BME280;35306;53.458;-1.990;2022-07-06T08:14:18;101138.25;;;14.39;100.00
49435;BME280;35306;53.458;-1.990;2022-07-06T08:16:45;101138.23;;;14.40;100.00
49435;BME280;35306;53.458;-1.990;2022-07-06T08:19:13;101136.14;;;15.05;100.00
49435;BME280;35306;53.458;-1.990;2022-07-06T08:21:40;101135.76;;;15.30;100.00
49435;BME280;35306;53.458;-1.990;2022-07-06T08:24:09;101135.70;;;15.43;100.00
49435;BME280;35306;53.458;-1.990;2022-07-06T08:26:37;101134.94;;;15.07;100.00
49435;BME280;35306;53.458;-1.990;2022-07-06T08:29:04;101133.19;;;16.10;100.00
49435;BME280;35306;53.458;-1.990;2022-07-06T08:31:32;101132.30;;;15.74;100.00
49435;BME280;35306;53.458;-1.990;2022-07-06T08:33:59;101125.79;;;16.44;100.00
49435;BME280;35306;53.458;-1.990;2022-07-06T08:36:27;101125.99;;;15.74;100.00
49435;BME280;35306;53.458;-1.990;2022-07-06T08:38:55;101132.20;;;15.92;100.00
49435;BME280;35306;53.458;-1.990;2022-07-06T08:41:25;101123.99;;;16.07;100.00
49435;BME280;35306;53.458;-1.990;2022-07-06T08:43:54;101124.54;;;16.30;100.00
49435;BME280;35306;53.458;-1.990;2022-07-06T08:46:22;101127.44;;;16.54;100.00
49435;BME280;35306;53.458;-1.990;2022-07-06T08:48:50;101125.26;;;16.63;100.00
49435;BME280;35306;53.458;-1.990;2022-07-06T08:51:17;101125.22;;;16.98;100.00
49435;BME280;35306;53.458;-1.990;2022-07-06T08:53:46;101135.60;;;16.28;100.00
49435;BME280;35306;53.458;-1.990;2022-07-06T08:56:13;101134.26;;;16.01;100.00
49435;BME280;35306;53.458;-1.990;2022-07-06T08:58:41;101136.04;;;16.03;100.00
49435;BME280;35306;53.458;-1.990;2022-07-06T09:01:10;101131.94;;;16.03;100.00
49435;BME280;35306;53.458;-1.990;2022-07-06T09:03:40;101134.95;;;16.57;100.00
49435;BME280;35306;53.458;-1.990;2022-07-06T09:06:09;101129.82;;;16.84;100.00
49435;BME280;35306;53.458;-1.990;2022-07-06T09:08:38;101129.34;;;16.34;100.00
49435;BME280;35306;53.458;-1.990;2022-07-06T09:11:05;101129.07;;;16.98;100.00
49435;BME280;35306;53.458;-1.990;2022-07-06T09:13:33;101130.94;;;16.44;100.00
49435;BME280;35306;53.458;-1.990;2022-07-06T09:16:09;101126.21;;;16.66;100.00
49435;BME280;35306;53.458;-1.990;2022-07-06T09:18:37;101122.99;;;17.08;100.00
49435;BME280;35306;53.458;-1.990;2022-07-06T09:21:05;101119.69;;;16.58;100.00
49435;BME280;35306;53.458;-1.990;2022-07-06T09:23:32;101121.32;;;16.64;100.00
49435;BME280;35306;53.458;-1.990;2022-07-06T09:26:02;101113.39;;;16.68;100.00
49435;BME280;35306;53.458;-1.990;2022-07-06T09:28:41;101123.08;;;16.64;100.00
49435;BME280;35306;53.458;-1.990;2022-07-06T09:31:09;101134.11;;;16.21;100.00
49435;BME280;35306;53.458;-1.990;2022-07-06T09:33:37;101136.17;;;15.60;100.00
49435;BME280;35306;53.458;-1.990;2022-07-06T09:36:05;101140.52;;;15.25;100.00
49435;BME280;35306;53.458;-1.990;2022-07-06T09:38:32;101150.22;;;15.53;100.00
49435;BME280;35306;53.458;-1.990;2022-07-06T09:41:00;101135.57;;;16.36;100.00
49435;BME280;35306;53.458;-1.990;2022-07-06T09:43:28;101133.53;;;16.35;100.00
49435;BME280;35306;53.458;-1.990;2022-07-06T09:45:56;101132.41;;;15.75;100.00
49435;BME280;35306;53.458;-1.990;2022-07-06T09:48:26;101130.73;;;16.12;100.00
49435;BME280;35306;53.458;-1.990;2022-07-06T09:50:54;101129.52;;;16.12;100.00
49435;BME280;35306;53.458;-1.990;2022-07-06T09:53:23;101138.86;;;16.70;100.00
49435;BME280;35306;53.458;-1.990;2022-07-06T09:55:53;101144.88;;;16.19;100.00
49435;BME280;35306;53.458;-1.990;2022-07-06T09:58:21;101142.22;;;16.90;100.00
49435;BME280;35306;53.458;-1.990;2022-07-06T10:00:50;101133.44;;;17.16;100.00
49435;BME280;35306;53.458;-1.990;2022-07-06T10:03:18;101135.38;;;16.71;100.00
49435;BME280;35306;53.458;-1.990;2022-07-06T10:05:47;101138.70;;;17.71;100.00
49435;BME280;35306;53.458;-1.990;2022-07-06T10:08:15;101137.17;;;17.38;100.00
49435;BME280;35306;53.458;-1.990;2022-07-06T10:10:44;101134.62;;;17.30;100.00
49435;BME280;35306;53.458;-1.990;2022-07-06T10:13:12;101136.76;;;16.40;100.00
49435;BME280;35306;53.458;-1.990;2022-07-06T10:15:41;101140.20;;;17.29;100.00
49435;BME280;35306;53.458;-1.990;2022-07-06T10:18:09;101139.52;;;17.12;100.00
49435;BME280;35306;53.458;-1.990;2022-07-06T10:20:38;101147.45;;;17.05;100.00
49435;BME280;35306;53.458;-1.990;2022-07-06T10:23:07;101139.32;;;17.31;100.00
49435;BME280;35306;53.458;-1.990;2022-07-06T10:25:35;101134.32;;;17.56;100.00
49435;BME280;35306;53.458;-1.990;2022-07-06T10:28:04;101133.65;;;17.35;100.00
49435;BME280;35306;53.458;-1.990;2022-07-06T10:30:33;101137.75;;;17.82;100.00
49435;BME280;35306;53.458;-1.990;2022-07-06T10:33:01;101140.48;;;17.06;100.00
49435;BME280;35306;53.458;-1.990;2022-07-06T10:35:29;101138.73;;;17.77;100.00
49435;BME280;35306;53.458;-1.990;2022-07-06T10:38:04;101130.39;;;16.64;100.00
49435;BME280;35306;53.458;-1.990;2022-07-06T10:40:33;101132.94;;;17.45;100.00
49435;BME280;35306;53.458;-1.990;2022-07-06T10:43:02;101129.16;;;18.27;100.00
49435;BME280;35306;53.458;-1.990;2022-07-06T10:46:07;101124.28;;;19.37;100.00
49435;BME280;35306;53.458;-1.990;2022-07-06T10:48:36;101129.23;;;18.12;100.00
49435;BME280;35306;53.458;-1.990;2022-07-06T10:51:04;101136.69;;;17.23;100.00
49435;BME280;35306;53.458;-1.990;2022-07-06T10:53:33;101140.13;;;16.95;100.00
49435;BME280;35306;53.458;-1.990;2022-07-06T10:56:03;101141.03;;;15.96;100.00
49435;BME280;35306;53.458;-1.990;2022-07-06T10:58:37;101136.96;;;16.15;100.00
49435;BME280;35306;53.458;-1.990;2022-07-06T11:01:05;101133.28;;;16.43;100.00
49435;BME280;35306;53.458;-1.990;2022-07-06T11:03:35;101128.12;;;17.10;100.00
49435;BME280;35306;53.458;-1.990;2022-07-06T11:06:06;101129.41;;;18.08;100.00
49435;BME280;35306;53.458;-1.990;2022-07-06T11:08:44;101129.47;;;18.04;100.00
49435;BME280;35306;53.458;-1.990;2022-07-06T11:11:12;101128.05;;;18.08;100.00
49435;BME280;35306;53.458;-1.990;2022-07-06T11:13:43;101119.09;;;17.70;100.00
49435;BME280;35306;53.458;-1.990;2022-07-06T11:16:14;101099.97;;;17.58;100.00
49435;BME280;35306;53.458;-1.990;2022-07-06T11:18:46;101096.68;;;18.20;100.00
49435;BME280;35306;53.458;-1.990;2022-07-06T11:21:20;101105.77;;;17.43;100.00
49435;BME280;35306;53.458;-1.990;2022-07-06T11:23:50;101107.46;;;16.43;100.00
49435;BME280;35306;53.458;-1.990;2022-07-06T11:26:17;101101.30;;;16.64;100.00
49435;BME280;35306;53.458;-1.990;2022-07-06T11:28:47;101098.89;;;16.47;100.00
49435;BME280;35306;53.458;-1.990;2022-07-06T11:31:14;101105.33;;;16.74;100.00
49435;BME280;35306;53.458;-1.990;2022-07-06T11:33:45;101110.73;;;16.28;100.00
49435;BME280;35306;53.458;-1.990;2022-07-06T11:36:14;101103.81;;;16.62;100.00
49435;BME280;35306;53.458;-1.990;2022-07-06T11:38:42;101107.90;;;16.48;100.00
49435;BME280;35306;53.458;-1.990;2022-07-06T11:41:11;101106.43;;;17.33;100.00
49435;BME280;35306;53.458;-1.990;2022-07-06T11:43:39;101104.53;;;17.24;100.00
49435;BME280;35306;53.458;-1.990;2022-07-06T11:46:06;101100.38;;;17.19;100.00
49435;BME280;35306;53.458;-1.990;2022-07-06T11:48:34;101099.21;;;17.76;100.00
49435;BME280;35306;53.458;-1.990;2022-07-06T11:51:03;101098.61;;;17.46;100.00
49435;BME280;35306;53.458;-1.990;2022-07-06T11:53:30;101096.64;;;18.58;100.00
49435;BME280;35306;53.458;-1.990;2022-07-06T11:56:03;101087.84;;;18.07;100.00
49435;BME280;35306;53.458;-1.990;2022-07-06T11:58:31;101087.95;;;17.37;100.00
49435;BME280;35306;53.458;-1.990;2022-07-06T12:01:05;101087.90;;;17.04;100.00
49435;BME280;35306;53.458;-1.990;2022-07-06T12:03:33;101093.72;;;17.20;100.00
49435;BME280;35306;53.458;-1.990;2022-07-06T12:06:01;101098.20;;;17.06;100.00
49435;BME280;35306;53.458;-1.990;2022-07-06T12:08:29;101096.19;;;17.65;100.00
49435;BME280;35306;53.458;-1.990;2022-07-06T12:10:57;101094.84;;;17.81;100.00
49435;BME280;35306;53.458;-1.990;2022-07-06T12:13:24;101089.03;;;17.49;100.00
49435;BME280;35306;53.458;-1.990;2022-07-06T12:15:52;101076.98;;;17.48;100.00
49435;BME280;35306;53.458;-1.990;2022-07-06T12:18:20;101076.87;;;17.38;100.00
49435;BME280;35306;53.458;-1.990;2022-07-06T12:20:47;101073.27;;;17.12;100.00
49435;BME280;35306;53.458;-1.990;2022-07-06T12:23:15;101077.14;;;17.33;100.00
49435;BME280;35306;53.458;-1.990;2022-07-06T12:25:42;101074.11;;;16.84;100.00
49435;BME280;35306;53.458;-1.990;2022-07-06T12:28:22;101074.17;;;16.90;100.00
49435;BME280;35306;53.458;-1.990;2022-07-06T12:30:49;101068.34;;;16.87;100.00
49435;BME280;35306;53.458;-1.990;2022-07-06T12:33:17;101066.29;;;17.38;100.00
49435;BME280;35306;53.458;-1.990;2022-07-06T12:35:44;101066.66;;;17.40;100.00
49435;BME280;35306;53.458;-1.990;2022-07-06T12:38:12;101074.63;;;17.45;100.00